createdAt,value
2022-07-30T00:00:32.198Z,5.43
2022-07-30T00:02:58.744Z,5.70
2022-07-30T00:05:25.498Z,5.30
2022-07-30T00:07:52.226Z,5.55
2022-07-30T00:10:20.656Z,5.43
2022-07-30T00:12:47.349Z,5.30
2022-07-30T00:15:14.104Z,6.15
2022-07-30T00:17:40.635Z,4.93
2022-07-30T00:20:08.481Z,5.78
2022-07-30T00:22:37.848Z,6.38
2022-07-30T00:25:04.702Z,5.30
2022-07-30T00:27:34.821Z,5.78
2022-07-30T00:30:03.686Z,5.28
2022-07-30T00:32:30.262Z,5.60
2022-07-30T00:34:56.939Z,6.38
2022-07-30T00:37:23.460Z,6.17
2022-07-30T00:39:50.042Z,9.00
2022-07-30T00:42:17.845Z,6.03
2022-07-30T00:44:44.536Z,6.50
2022-07-30T00:47:11.097Z,5.90
2022-07-30T00:49:42.566Z,5.37
2022-07-30T00:52:10.898Z,5.57
2022-07-30T00:54:37.522Z,6.05
2022-07-30T00:57:04.235Z,6.43
2022-07-30T00:59:31.705Z,5.38
2022-07-30T01:02:01.712Z,5.90
2022-07-30T01:04:28.976Z,6.30
2022-07-30T01:06:55.569Z,6.15
2022-07-30T01:09:22.081Z,6.32
2022-07-30T01:11:48.718Z,6.90
2022-07-30T01:14:15.588Z,7.90
2022-07-30T01:16:44.029Z,7.25
2022-07-30T01:19:52.247Z,7.53
2022-07-30T01:22:31.272Z,6.57
2022-07-30T01:25:04.026Z,6.53
2022-07-30T01:27:34.605Z,5.93
2022-07-30T01:30:05.415Z,6.75
2022-07-30T01:32:34.648Z,7.35
2022-07-30T01:35:03.403Z,8.15
2022-07-30T01:37:33.725Z,8.15
2022-07-30T01:40:00.773Z,7.73
2022-07-30T01:42:29.768Z,7.07
2022-07-30T01:44:58.476Z,7.72
2022-07-30T01:47:25.800Z,8.02
2022-07-30T01:49:55.269Z,7.35
2022-07-30T01:52:24.566Z,7.87
2022-07-30T01:54:54.909Z,8.73
2022-07-30T01:57:23.154Z,8.48
2022-07-30T01:59:52.153Z,8.27
2022-07-30T02:02:19.009Z,8.95
2022-07-30T02:04:45.658Z,9.30
2022-07-30T02:07:44.491Z,9.40
2022-07-30T02:10:42.279Z,8.38
2022-07-30T02:13:11.903Z,8.43
2022-07-30T02:15:59.448Z,8.35
2022-07-30T02:18:43.843Z,7.30
2022-07-30T02:21:13.071Z,7.88
2022-07-30T02:23:43.699Z,7.53
2022-07-30T02:26:18.531Z,9.02
2022-07-30T02:28:49.678Z,8.90
2022-07-30T02:31:19.331Z,8.10
2022-07-30T02:33:49.506Z,9.15
2022-07-30T02:36:18.873Z,10.23
2022-07-30T02:38:47.538Z,10.15
2022-07-30T02:41:15.574Z,10.45
2022-07-30T02:43:42.978Z,10.47
2022-07-30T02:46:12.949Z,9.88
2022-07-30T02:48:41.614Z,9.48
2022-07-30T02:51:10.240Z,9.55
2022-07-30T02:53:38.392Z,9.25
2022-07-30T02:56:07.780Z,8.53
2022-07-30T02:58:38.205Z,7.32
2022-07-30T03:01:05.896Z,7.35
2022-07-30T03:03:33.396Z,7.28
2022-07-30T03:06:02.460Z,6.07
2022-07-30T03:08:31.524Z,7.13
2022-07-30T03:10:58.336Z,6.72
2022-07-30T03:13:25.633Z,7.53
2022-07-30T03:15:54.106Z,6.60
2022-07-30T03:18:22.913Z,7.53
2022-07-30T03:20:53.334Z,6.23
2022-07-30T03:23:20.903Z,7.00
2022-07-30T03:25:56.806Z,6.93
2022-07-30T03:28:25.535Z,7.55
2022-07-30T03:30:53.837Z,7.47
2022-07-30T03:33:21.851Z,6.93
2022-07-30T03:35:49.784Z,7.45
2022-07-30T03:38:17.647Z,7.72
2022-07-30T03:40:46.286Z,8.30
2022-07-30T03:43:32.073Z,7.40
2022-07-30T03:46:01.041Z,6.07
2022-07-30T03:48:28.232Z,7.65
2022-07-30T03:50:55.631Z,8.32
2022-07-30T03:53:25.068Z,7.90
2022-07-30T03:55:53.359Z,9.50
2022-07-30T03:58:20.454Z,9.07
2022-07-30T04:00:49.548Z,9.30
2022-07-30T04:03:30.371Z,9.90
2022-07-30T04:05:57.661Z,10.63
2022-07-30T04:08:24.857Z,10.77
2022-07-30T04:10:52.597Z,11.17
2022-07-30T04:13:19.408Z,10.55
2022-07-30T04:16:05.878Z,8.98
2022-07-30T04:18:47.527Z,8.75
2022-07-30T04:21:17.955Z,9.35
2022-07-30T04:24:03.910Z,9.13
2022-07-30T04:26:33.892Z,8.55
2022-07-30T04:29:04.907Z,8.68
2022-07-30T04:31:40.037Z,9.65
2022-07-30T04:34:07.477Z,8.68
2022-07-30T04:36:35.751Z,8.50
2022-07-30T04:39:02.354Z,9.70
2022-07-30T04:41:29.063Z,9.45
2022-07-30T04:44:11.885Z,8.50
2022-07-30T04:46:38.832Z,8.82
2022-07-30T04:49:05.457Z,8.10
2022-07-30T04:51:38.524Z,7.75
2022-07-30T04:54:09.022Z,7.43
2022-07-30T04:56:53.575Z,8.75
2022-07-30T04:59:27.989Z,8.30
2022-07-30T05:01:57.507Z,8.73
2022-07-30T05:04:26.569Z,8.32
2022-07-30T05:06:54.670Z,9.20
2022-07-30T05:09:22.601Z,7.78
2022-07-30T05:11:53.720Z,7.90
2022-07-30T05:14:21.192Z,6.60
2022-07-30T05:16:47.831Z,5.38
2022-07-30T05:19:14.692Z,5.63
2022-07-30T05:21:41.311Z,5.35
2022-07-30T05:24:08.534Z,6.18
2022-07-30T05:26:35.202Z,6.60
2022-07-30T05:29:06.341Z,7.03
2022-07-30T05:31:34.013Z,7.05
2022-07-30T05:34:03.281Z,6.65
2022-07-30T05:36:30.920Z,6.78
2022-07-30T05:38:57.822Z,6.10
2022-07-30T05:41:32.570Z,5.65
2022-07-30T05:44:00.005Z,5.55
2022-07-30T05:46:27.181Z,5.47
2022-07-30T05:48:54.081Z,5.90
2022-07-30T05:51:22.183Z,5.20
2022-07-30T05:53:49.027Z,5.05
2022-07-30T05:56:15.685Z,5.18
2022-07-30T05:58:42.453Z,4.60
2022-07-30T06:01:09.114Z,4.07
2022-07-30T06:03:35.795Z,3.57
2022-07-30T06:06:05.669Z,4.55
2022-07-30T06:08:32.372Z,3.78
2022-07-30T06:10:58.974Z,4.25
2022-07-30T06:13:26.093Z,4.35
2022-07-30T06:15:53.040Z,4.10
2022-07-30T06:18:19.628Z,3.65
2022-07-30T06:20:52.023Z,3.58
2022-07-30T06:23:19.168Z,4.10
2022-07-30T06:25:46.835Z,3.63
2022-07-30T06:28:35.847Z,3.87
2022-07-30T06:31:00.388Z,4.07
2022-07-30T06:33:27.144Z,3.42
2022-07-30T06:35:53.772Z,4.63
2022-07-30T06:38:20.332Z,3.25
2022-07-30T06:40:46.881Z,3.10
2022-07-30T06:43:13.458Z,3.10
2022-07-30T06:45:40.165Z,2.80
2022-07-30T06:48:06.773Z,2.30
2022-07-30T06:50:33.427Z,2.00
2022-07-30T06:53:00.012Z,1.77
2022-07-30T06:55:26.573Z,2.42
2022-07-30T06:57:53.287Z,1.85
2022-07-30T07:00:20.667Z,2.28
2022-07-30T07:02:47.265Z,2.20
2022-07-30T07:05:13.911Z,2.07
2022-07-30T07:07:44.402Z,1.90
2022-07-30T07:10:19.031Z,1.60
2022-07-30T07:12:45.695Z,1.65
2022-07-30T07:15:12.342Z,1.40
2022-07-30T07:17:40.381Z,2.37
2022-07-30T07:20:07.602Z,2.00
2022-07-30T07:22:34.168Z,1.52
2022-07-30T07:25:00.701Z,1.30
2022-07-30T07:27:27.229Z,1.25
2022-07-30T07:30:01.745Z,1.50
2022-07-30T07:32:32.619Z,1.10
2022-07-30T07:34:59.302Z,1.20
2022-07-30T07:37:25.904Z,1.25
2022-07-30T07:39:52.728Z,1.60
2022-07-30T07:42:19.249Z,1.50
2022-07-30T07:44:45.795Z,1.90
2022-07-30T07:47:12.526Z,1.40
2022-07-30T07:49:39.402Z,1.70
2022-07-30T07:52:06.381Z,1.80
2022-07-30T07:54:33.624Z,1.67
2022-07-30T07:57:02.438Z,1.30
2022-07-30T07:59:39.961Z,1.60
2022-07-30T08:02:08.532Z,1.48
2022-07-30T08:04:35.987Z,1.58
2022-07-30T08:07:03.246Z,2.17
2022-07-30T08:09:44.325Z,1.65
2022-07-30T08:12:12.664Z,1.52
2022-07-30T08:14:39.434Z,2.10
2022-07-30T08:17:06.633Z,1.90
2022-07-30T08:19:34.032Z,1.47
2022-07-30T08:22:00.728Z,1.38
2022-07-30T08:24:27.270Z,1.73
2022-07-30T08:26:54.110Z,1.80
2022-07-30T08:29:20.682Z,1.48
2022-07-30T08:31:47.450Z,1.63
2022-07-30T08:34:14.635Z,1.40
2022-07-30T08:36:41.893Z,1.20
2022-07-30T08:39:08.714Z,1.40
2022-07-30T08:41:37.120Z,1.50
2022-07-30T08:44:07.839Z,2.03
2022-07-30T08:46:41.497Z,1.48
2022-07-30T08:49:14.916Z,1.65
2022-07-30T08:51:42.166Z,1.55
2022-07-30T08:54:08.962Z,1.50
2022-07-30T08:56:35.557Z,1.80
2022-07-30T08:59:03.195Z,1.80
2022-07-30T09:01:29.913Z,1.40
2022-07-30T09:03:56.551Z,1.95
2022-07-30T09:06:23.609Z,2.50
2022-07-30T09:08:50.237Z,1.70
2022-07-30T09:11:16.921Z,1.60
2022-07-30T09:13:44.667Z,1.55
2022-07-30T09:16:20.377Z,1.70
2022-07-30T09:18:46.936Z,1.48
2022-07-30T09:21:17.693Z,1.77
2022-07-30T09:24:00.494Z,1.60
2022-07-30T09:26:27.641Z,1.83
2022-07-30T09:28:54.288Z,3.17
2022-07-30T09:31:22.275Z,1.85
2022-07-30T09:33:49.247Z,2.80
2022-07-30T09:36:18.273Z,2.55
2022-07-30T09:38:53.181Z,2.85
2022-07-30T09:41:38.793Z,2.35
2022-07-30T09:44:06.593Z,2.60
2022-07-30T09:46:51.590Z,3.23
2022-07-30T09:49:26.945Z,2.22
2022-07-30T09:51:57.188Z,2.50
2022-07-30T09:54:52.840Z,2.55
2022-07-30T09:57:26.538Z,2.40
2022-07-30T09:59:56.806Z,2.43
2022-07-30T10:02:33.905Z,2.53
2022-07-30T10:05:15.639Z,2.05
2022-07-30T10:07:54.678Z,2.67
2022-07-30T10:10:25.561Z,2.33
2022-07-30T10:12:59.063Z,2.47
2022-07-30T10:15:30.260Z,2.30
2022-07-30T10:18:00.094Z,2.20
2022-07-30T10:20:28.308Z,2.33
2022-07-30T10:22:55.714Z,2.70
2022-07-30T10:25:27.752Z,2.50
2022-07-30T10:27:57.042Z,2.40
2022-07-30T10:30:28.269Z,2.80
2022-07-30T10:32:57.228Z,2.38
2022-07-30T10:35:34.262Z,2.50
2022-07-30T10:38:09.980Z,3.60
2022-07-30T10:40:50.480Z,2.10
2022-07-30T10:44:01.531Z,2.00
2022-07-30T10:46:29.210Z,2.47
2022-07-30T10:48:57.549Z,1.90
2022-07-30T10:51:43.416Z,2.13
2022-07-30T10:54:47.693Z,2.20
2022-07-30T10:57:31.713Z,2.22
2022-07-30T10:59:59.920Z,2.30
2022-07-30T11:02:31.456Z,2.35
2022-07-30T11:05:32.112Z,2.07
2022-07-30T11:08:32.231Z,2.05
2022-07-30T11:12:01.677Z,2.25
2022-07-30T11:14:07.820Z,2.50
2022-07-30T11:16:34.854Z,2.60
2022-07-30T11:19:55.316Z,2.57
2022-07-30T11:22:29.767Z,1.95
2022-07-30T11:24:56.642Z,2.13
2022-07-30T11:27:41.985Z,2.22
2022-07-30T11:30:21.060Z,2.33
2022-07-30T11:32:51.663Z,2.53
2022-07-30T11:35:23.365Z,2.85
2022-07-30T11:38:02.392Z,2.63
2022-07-30T11:40:49.221Z,2.50
2022-07-30T11:43:35.948Z,2.80
2022-07-30T11:46:29.682Z,2.30
2022-07-30T11:48:58.949Z,2.60
2022-07-30T11:51:26.839Z,1.90
2022-07-30T11:54:07.510Z,2.80
2022-07-30T11:56:34.641Z,1.98
2022-07-30T11:59:06.626Z,2.17
2022-07-30T12:01:34.376Z,2.25
2022-07-30T12:04:06.370Z,2.20
2022-07-30T12:06:33.615Z,2.08
2022-07-30T12:09:00.457Z,2.80
2022-07-30T12:11:34.069Z,2.33
2022-07-30T12:14:02.268Z,2.25
2022-07-30T12:16:31.024Z,2.95
2022-07-30T12:19:05.402Z,3.10
2022-07-30T12:21:32.752Z,2.35
2022-07-30T12:24:00.778Z,2.80
2022-07-30T12:26:29.669Z,2.33
2022-07-30T12:29:05.048Z,2.60
2022-07-30T12:31:33.739Z,2.55
2022-07-30T12:34:01.003Z,2.65
2022-07-30T12:36:33.006Z,2.50
2022-07-30T12:39:02.257Z,2.60
2022-07-30T12:41:46.642Z,2.55
2022-07-30T12:44:36.180Z,3.05
2022-07-30T12:47:05.233Z,3.50
2022-07-30T12:49:36.890Z,2.70
2022-07-30T12:52:27.637Z,2.47
2022-07-30T12:55:12.831Z,2.50
2022-07-30T12:58:11.560Z,2.45
2022-07-30T13:00:43.798Z,3.13
2022-07-30T13:03:25.008Z,2.10
2022-07-30T13:05:55.602Z,2.42
2022-07-30T13:08:46.145Z,2.47
2022-07-30T13:11:12.938Z,2.60
2022-07-30T13:13:39.583Z,2.03
2022-07-30T13:16:07.412Z,2.50
2022-07-30T13:18:36.254Z,2.55
2022-07-30T13:21:05.700Z,2.50
2022-07-30T13:23:32.409Z,1.85
2022-07-30T13:25:59.275Z,2.33
2022-07-30T13:28:25.977Z,2.00
2022-07-30T13:30:52.668Z,2.50
2022-07-30T13:33:19.431Z,2.20
2022-07-30T13:35:45.949Z,2.40
2022-07-30T13:38:13.645Z,2.47
2022-07-30T13:40:40.495Z,2.50
2022-07-30T13:43:07.399Z,2.95
2022-07-30T13:45:35.689Z,2.88
2022-07-30T13:48:02.507Z,2.22
2022-07-30T13:50:29.219Z,2.88
2022-07-30T13:53:01.775Z,2.60
2022-07-30T13:55:28.938Z,2.85
2022-07-30T13:57:55.738Z,1.83
2022-07-30T14:00:23.153Z,2.30
2022-07-30T14:02:49.903Z,2.00
2022-07-30T14:05:16.472Z,2.30
2022-07-30T14:07:43.087Z,2.30
2022-07-30T14:10:09.715Z,2.67
2022-07-30T14:12:36.385Z,2.22
2022-07-30T14:15:03.085Z,2.00
2022-07-30T14:17:29.681Z,2.40
2022-07-30T14:19:56.310Z,2.30
2022-07-30T14:22:22.838Z,2.00
2022-07-30T14:24:49.658Z,2.13
2022-07-30T14:27:18.334Z,2.05
2022-07-30T14:29:45.011Z,2.03
2022-07-30T14:32:11.720Z,2.28
2022-07-30T14:34:38.353Z,2.15
2022-07-30T14:37:06.143Z,2.15
2022-07-30T14:39:36.345Z,2.45
2022-07-30T14:42:03.029Z,2.17
2022-07-30T14:44:29.659Z,1.92
2022-07-30T14:46:56.203Z,1.95
2022-07-30T14:49:23.954Z,2.33
2022-07-30T14:51:51.344Z,2.50
2022-07-30T14:54:18.576Z,2.20
2022-07-30T14:56:45.367Z,1.80
2022-07-30T14:59:12.060Z,1.95
2022-07-30T15:01:38.690Z,2.08
2022-07-30T15:04:09.480Z,1.65
2022-07-30T15:06:40.816Z,2.03
2022-07-30T15:09:08.664Z,2.23
2022-07-30T15:12:04.293Z,2.10
2022-07-30T15:14:22.548Z,2.05
2022-07-30T15:16:51.397Z,1.80
2022-07-30T15:19:17.947Z,2.30
2022-07-30T15:21:44.932Z,1.67
2022-07-30T15:24:11.489Z,2.83
2022-07-30T15:26:38.094Z,1.65
2022-07-30T15:29:04.813Z,1.63
2022-07-30T15:31:31.482Z,2.00
2022-07-30T15:33:58.159Z,2.03
2022-07-30T15:36:24.823Z,2.00
2022-07-30T15:38:51.441Z,2.20
2022-07-30T15:41:18.065Z,1.85
2022-07-30T15:43:44.640Z,2.53
2022-07-30T15:46:11.328Z,1.98
2022-07-30T15:48:37.954Z,1.90
2022-07-30T15:51:05.111Z,2.10
2022-07-30T15:53:32.625Z,1.60
2022-07-30T15:56:00.462Z,1.80
2022-07-30T15:58:27.196Z,2.30
2022-07-30T16:00:53.825Z,2.20
2022-07-30T16:03:21.107Z,1.90
2022-07-30T16:05:51.744Z,2.17
2022-07-30T16:08:20.747Z,2.25
2022-07-30T16:10:47.828Z,1.80
2022-07-30T16:13:14.747Z,2.28
2022-07-30T16:15:41.330Z,1.83
2022-07-30T16:18:08.301Z,2.05
2022-07-30T16:20:35.105Z,2.20
2022-07-30T16:23:02.170Z,2.10
2022-07-30T16:25:28.780Z,2.30
2022-07-30T16:27:55.424Z,2.30
2022-07-30T16:30:24.369Z,2.25
2022-07-30T16:32:56.303Z,2.38
2022-07-30T16:35:23.488Z,2.55
2022-07-30T16:37:50.096Z,2.00
2022-07-30T16:40:16.703Z,2.10
2022-07-30T16:42:43.330Z,2.83
2022-07-30T16:45:10.240Z,2.25
2022-07-30T16:47:37.897Z,2.22
2022-07-30T16:50:04.861Z,2.40
2022-07-30T16:52:31.411Z,2.73
2022-07-30T16:54:57.985Z,2.60
2022-07-30T16:57:24.510Z,2.20
2022-07-30T16:59:51.131Z,2.75
2022-07-30T17:02:17.696Z,2.35
2022-07-30T17:04:44.219Z,2.50
2022-07-30T17:07:10.836Z,2.08
2022-07-30T17:09:37.395Z,2.15
2022-07-30T17:12:06.324Z,2.10
2022-07-30T17:14:40.173Z,1.85
2022-07-30T17:17:08.679Z,1.80
2022-07-30T17:19:39.305Z,1.73
2022-07-30T17:22:06.625Z,2.10
2022-07-30T17:24:33.205Z,1.80
2022-07-30T17:26:59.751Z,1.98
2022-07-30T17:29:26.528Z,2.07
2022-07-30T17:31:53.156Z,2.10
2022-07-30T17:34:22.167Z,1.90
2022-07-30T17:36:52.354Z,2.50
2022-07-30T17:40:19.888Z,2.30
2022-07-30T17:42:09.760Z,2.33
2022-07-30T17:44:36.848Z,2.28
2022-07-30T17:47:04.413Z,2.08
2022-07-30T17:49:31.434Z,2.20
2022-07-30T17:51:58.019Z,2.00
2022-07-30T17:54:24.874Z,2.03
2022-07-30T17:56:51.453Z,2.10
2022-07-30T17:59:18.216Z,1.77
2022-07-30T18:01:44.876Z,2.38
2022-07-30T18:04:11.516Z,2.13
2022-07-30T18:06:38.227Z,2.40
2022-07-30T18:09:05.411Z,2.83
2022-07-30T18:11:32.728Z,2.35
2022-07-30T18:13:59.390Z,3.38
2022-07-30T18:16:26.277Z,2.22
2022-07-30T18:18:52.843Z,2.07
2022-07-30T18:21:19.478Z,1.90
2022-07-30T18:23:46.017Z,2.00
2022-07-30T18:26:12.622Z,2.13
2022-07-30T18:28:39.182Z,2.00
2022-07-30T18:31:06.097Z,2.00
2022-07-30T18:33:32.858Z,2.03
2022-07-30T18:35:59.460Z,1.77
2022-07-30T18:38:26.227Z,2.53
2022-07-30T18:40:58.389Z,2.28
2022-07-30T18:43:28.510Z,2.40
2022-07-30T18:45:56.008Z,2.45
2022-07-30T18:48:23.018Z,2.17
2022-07-30T18:50:50.475Z,2.08
2022-07-30T18:53:17.252Z,2.00
2022-07-30T18:55:44.349Z,3.30
2022-07-30T18:58:11.312Z,2.22
2022-07-30T19:00:39.694Z,2.45
2022-07-30T19:03:15.456Z,2.22
2022-07-30T19:05:44.574Z,2.40
2022-07-30T19:08:11.195Z,2.40
2022-07-30T19:10:37.893Z,2.17
2022-07-30T19:13:04.557Z,2.65
2022-07-30T19:15:31.254Z,2.35
2022-07-30T19:17:58.335Z,2.25
2022-07-30T19:20:26.591Z,2.60
2022-07-30T19:23:04.551Z,2.88
2022-07-30T19:25:33.183Z,2.85
2022-07-30T19:28:01.516Z,2.90
2022-07-30T19:30:29.661Z,3.67
2022-07-30T19:33:03.067Z,2.37
2022-07-30T19:35:30.446Z,2.53
2022-07-30T19:37:57.072Z,2.55
2022-07-30T19:40:23.861Z,2.45
2022-07-30T19:42:55.996Z,2.53
2022-07-30T19:45:23.412Z,2.30
2022-07-30T19:47:50.169Z,2.28
2022-07-30T19:50:16.799Z,2.70
2022-07-30T19:52:51.548Z,2.25
2022-07-30T19:55:35.019Z,2.50
2022-07-30T19:58:02.809Z,2.33
2022-07-30T20:00:30.251Z,2.58
2022-07-30T20:02:57.759Z,2.42
2022-07-30T20:05:25.115Z,2.00
2022-07-30T20:07:52.086Z,2.80
2022-07-30T20:10:19.440Z,2.50
2022-07-30T20:12:47.069Z,2.67
2022-07-30T20:15:16.256Z,2.10
2022-07-30T20:17:43.010Z,2.47
2022-07-30T20:20:10.291Z,2.63
2022-07-30T20:22:36.952Z,2.70
2022-07-30T20:25:06.261Z,2.78
2022-07-30T20:27:36.275Z,2.53
2022-07-30T20:30:04.783Z,2.80
2022-07-30T20:32:31.365Z,2.60
2022-07-30T20:34:58.444Z,2.17
2022-07-30T20:37:27.542Z,2.88
2022-07-30T20:39:55.598Z,2.95
2022-07-30T20:42:23.766Z,3.25
2022-07-30T20:44:53.478Z,3.15
2022-07-30T20:47:38.538Z,3.33
2022-07-30T20:50:10.238Z,3.10
2022-07-30T20:52:40.992Z,3.60
2022-07-30T20:55:16.451Z,3.30
2022-07-30T20:57:56.406Z,3.30
2022-07-30T21:00:27.974Z,3.50
2022-07-30T21:02:54.526Z,3.95
2022-07-30T21:05:21.545Z,3.70
2022-07-30T21:07:48.183Z,3.80
2022-07-30T21:10:20.053Z,3.72
2022-07-30T21:15:36.756Z,3.50
2022-07-30T21:18:12.679Z,3.65
2022-07-30T21:20:39.487Z,3.45
2022-07-30T21:23:10.167Z,4.25
2022-07-30T21:26:01.972Z,3.93
2022-07-30T21:28:27.721Z,3.92
2022-07-30T21:30:54.387Z,3.83
2022-07-30T21:33:24.281Z,3.70
2022-07-30T21:35:57.678Z,4.07
2022-07-30T21:38:26.611Z,3.57
2022-07-30T21:40:53.511Z,4.22
2022-07-30T21:46:06.716Z,3.72
2022-07-30T21:48:33.535Z,3.83
2022-07-30T21:51:00.929Z,2.97
2022-07-30T21:53:45.304Z,3.88
2022-07-30T21:56:13.914Z,2.78
2022-07-30T21:58:41.221Z,3.20
2022-07-30T22:01:16.665Z,3.05
2022-07-30T22:04:01.135Z,2.73
2022-07-30T22:06:36.510Z,3.28
2022-07-30T22:09:19.459Z,3.00
2022-07-30T22:11:53.378Z,2.53
2022-07-30T22:14:19.978Z,2.50
2022-07-30T22:16:46.887Z,2.47
2022-07-30T22:19:14.893Z,3.10
2022-07-30T22:21:42.773Z,2.67
2022-07-30T22:24:29.069Z,2.40
2022-07-30T22:27:01.100Z,2.55
2022-07-30T22:29:34.163Z,1.90
2022-07-30T22:32:02.465Z,2.35
2022-07-30T22:34:29.376Z,2.63
2022-07-30T22:36:57.527Z,2.47
2022-07-30T22:39:31.828Z,2.70
2022-07-30T22:41:59.084Z,2.70
2022-07-30T22:44:27.648Z,2.30
2022-07-30T22:49:49.863Z,2.65
2022-07-30T22:52:25.447Z,2.60
2022-07-30T22:54:55.628Z,2.97
2022-07-30T22:57:22.924Z,2.80
2022-07-30T23:00:00.256Z,2.85
2022-07-30T23:05:15.586Z,2.50
2022-07-30T23:07:42.904Z,2.83
2022-07-30T23:10:16.931Z,2.50
2022-07-30T23:12:27.668Z,3.88
2022-07-30T23:12:30.468Z,2.63
2022-07-30T23:12:31.285Z,3.83
2022-07-30T23:12:34.405Z,2.53
2022-07-30T23:12:47.985Z,2.45
2022-07-30T23:15:15.064Z,2.67
2022-07-30T23:17:41.877Z,2.60
2022-07-30T23:20:11.376Z,3.00
2022-07-30T23:22:38.408Z,2.22
2022-07-30T23:25:06.600Z,2.30
2022-07-30T23:27:33.990Z,2.30
2022-07-30T23:30:00.538Z,2.25
2022-07-30T23:32:27.288Z,2.10
2022-07-30T23:34:53.865Z,2.00
2022-07-30T23:37:20.868Z,2.60
2022-07-30T23:39:47.387Z,2.85
2022-07-30T23:42:15.113Z,2.38
2022-07-30T23:44:41.837Z,2.00
2022-07-30T23:47:08.406Z,2.60
2022-07-30T23:49:36.090Z,2.13
2022-07-30T23:52:02.830Z,2.20
2022-07-30T23:54:29.375Z,2.30
2022-07-30T23:56:56.474Z,2.37
2022-07-30T23:59:24.137Z,2.50
